West Palm Beach, FL

3:44 PM EDT on September 25, 2016 (GMT -0400)
Downtown | | Change Station

Elev 0 ft 26.71 °N, 80.05 °W | Updated 8 minutes ago

Mostly Cloudy
Mostly Cloudy
84.7 °F
Feels Like 86 °F
N
3.1
Wind Variable Wind from SSE
Gusts 6.2 mph

Today
High -- | Low -- °F
--% Chance of Precip.
Yesterday
High -- | Low -- °F
Precip. -- in
Pressure 29.99 in
Visibility 10.0 miles
Clouds Scattered Clouds 2300 ft
Scattered Clouds 5000 ft
Mostly Cloudy 24000 ft
Heat Index 86 °F
Dew Point 64 °F
Humidity 49%
Rainfall Not available.
Snow Depth Not available.
7:10 AM 7:12 PM
Waning Crescent, 25% visible
METAR KPBI 251853Z 13008KT 10SM SCT023 SCT050 BKN240 29/23 A2999 RMK AO2 SLP155 T02940228
Pressure 29.99 in
Visibility 10.0 miles
Clouds Scattered Clouds 2300 ft
Scattered Clouds 5000 ft
Mostly Cloudy 24000 ft
Heat Index 86 °F
Dew Point 64 °F
Humidity 49%
Rainfall Not available.
Snow Depth Not available.
7:10 AM 7:12 PM
Waning Crescent, 25% visible
METAR KPBI 251853Z 13008KT 10SM SCT023 SCT050 BKN240 29/23 A2999 RMK AO2 SLP155 T02940228

10-Day Weather Forecast

Almanac

Astronomy

Sep. 25, 2016 Rise Set
Actual Time
Civil Twilight
Nautical Twilight
Astronomical Twilight
Moon
Length of Visible Light
Length of Day
Tomorrow will be .
, % of the Moon is Illuminated

Today's Extremes

State Highs State Lows

Community

WunderPhotos

Upload Photos

1,941,708 photos uploaded!

WunderBlog® & News

Nearby

Air Quality

  Air Quality AQ Index Pollutant
Not available.

Snow Depth

Station Depth Elevation

Earthquake Activity

City Distance Mag. Time & Date
Minimum magnitude displayed is 2.5.

Coastal Water Temperatures

Place Temperature

Stations

Nearby Weather Stations

Station Location Temp. Windchill Dew Point Humidity Wind Precip. Elev Updated Type
                   

Watches & Warnings

There are currently no watches in effect.